Greater Kankakee Airport
KIKK : now visible

Airfield :











YOU CAN JOIN US ON...

 
LOGIN :

Register | Disclaimer

   EN    FR    IT 

 









Legend :    VFR   Marginal VFR   IFR   Intensive IFR   Very Intensive IFR
Visi :
Ceiling :
>= 8 km
>= 3000ft
5 to 8 km
1000 to 3000 ft
1500m to 5 km
500 to 1000 ft
800 to 1500m
200 to 500 ft
< 800m
< 200 ft
Symbols :   Thunderstorms  Fog  Heavy snow  Heavy precipitations  Wind > 20 kt







- Airport Elevation : 630 ft


KIKK - Greater Kankakee

CURRENT METAR :
  • 201955Z AUTO 20005KT 10SM CLR 30/20 A3011 RMK AO2 T02950199

EXPIRED METARs :
  • 201935Z AUTO 20005KT 10SM CLR 29/20 A3012 RMK AO2 T02920199
  • 201915Z AUTO 20003KT 10SM CLR 29/20 A3012 RMK AO2 T02890197
  • 201855Z AUTO 00000KT 10SM SCT120 29/19 A3012 RMK AO2 T02880190
  • 201835Z AUTO 00000KT 10SM SCT120 29/19 A3013 RMK AO2 T02880187
  • 201815Z AUTO 00000KT 10SM CLR 28/19 A3014 RMK AO2 T02800192
  • 201755Z AUTO 23003KT 10SM SCT070 SCT095 28/20 A3015 RMK AO2 T02760198 10279 20186
  • 201735Z AUTO 00000KT 10SM SCT060 BKN070 BKN085 27/20 A3015 RMK AO2 T02720201
  • 201715Z AUTO 00000KT 10SM BKN060 BKN075 26/19 A3015 RMK AO2 T02630192

TAF N/A
No reported NOTAMs for that airfield.



MET'MAP, your aeronautical weather chart ! - Copyright ORBIFLY December 2007 - Disclaimer

ORBIFLY MET'MAP TEAM :

Programming & Development : Alexandra Zaïnal
Concept & Development : Baudouin d'Aumeries
Co-Development & Prog : Marc-Olivier Méhu
Technical & hardware support : Manuel Goepfert

Contact : metmap@orbifly.com




SOURCES & CREDITS :

   NOAA       Earth
Advisory